Time;durP1;ratioP1;P1;durP2;ratioP2;P2;SDS_P1;SDS_P2;PMS_P1;PMS_P2;Temp;Humidity;BMP_temperature;BMP_pressure;BME280_temperature;BME280_humidity;BME280_pressure;Samples;Min_cycle;Max_cycle;Signal;HPM_P1;HPM_P2
2020/12/17 14:30:13;;;;;;;;;;;19.50;50.00;;;;;;5061935;28;19933;-66
2020/12/17 14:32:40;;;;;;;;;;;19.30;51.80;;;;;;5079451;28;19959;-65
2020/12/17 14:35:07;;;;;;;;;;;19.50;49.30;;;;;;5060458;28;19925;-64
2020/12/17 14:37:35;;;;;;;;;;;19.70;48.70;;;;;;5063118;28;19929;-61
2020/12/17 14:40:02;;;;;;;;;;;19.90;47.50;;;;;;5064406;28;19925;-63
2020/12/17 14:42:29;;;;;;;;;;;20.10;47.10;;;;;;5059347;28;19924;-62
2020/12/17 14:44:56;;;;;;;;;;;20.40;46.20;;;;;;5064791;28;19928;-64
2020/12/17 14:47:22;;;;;;;;;;;20.60;45.90;;;;;;5071869;28;19944;-68
2020/12/17 14:49:49;;;;;;;;;;;20.70;45.70;;;;;;5062679;28;19928;-68
2020/12/17 14:52:15;;;;;;;;;;;20.80;45.20;;;;;;5058546;28;19931;-69
2020/12/17 14:54:42;;;;;;;;;;;20.90;44.90;;;;;;5064483;28;20023;-62
2020/12/17 14:57:08;;;;;;;;;;;21.00;44.60;;;;;;5063930;28;19925;-63
2020/12/17 14:59:34;;;;;;;;;;;21.00;44.10;;;;;;5062894;28;19924;-67
2020/12/17 15:02:01;;;;;;;;;;;21.10;44.40;;;;;;5049017;28;19924;-67
2020/12/17 15:04:27;;;;;;;;;;;21.20;44.00;;;;;;5064272;28;19933;-66
2020/12/17 15:06:54;;;;;;;;;;;21.30;44.10;;;;;;5063077;28;20304;-65
2020/12/17 15:09:20;;;;;;;;;;;21.40;44.10;;;;;;5061821;28;20415;-64
2020/12/17 15:11:46;;;;;;;;;;;21.30;43.90;;;;;;5062522;28;19933;-65
2020/12/17 15:14:13;;;;;;;;;;;21.20;43.90;;;;;;5063194;28;19925;-69
2020/12/17 15:16:39;;;;;;;;;;;21.20;43.60;;;;;;5062634;28;20308;-64
2020/12/17 15:19:06;;;;;;;;;;;21.20;43.80;;;;;;5062984;28;20020;-72
2020/12/17 15:21:32;;;;;;;;;;;21.10;43.80;;;;;;5063351;28;19943;-68
2020/12/17 15:23:58;;;;;;;;;;;21.50;43.80;;;;;;5062337;28;19935;-65
2020/12/17 15:26:25;;;;;;;;;;;21.40;43.90;;;;;;5061985;28;19924;-64
2020/12/17 15:28:51;;;;;;;;;;;21.60;43.80;;;;;;5055725;28;19947;-66
2020/12/17 15:31:17;;;;;;;;;;;21.60;42.90;;;;;;5063463;28;20193;-62
2020/12/17 15:33:44;;;;;;;;;;;21.60;42.90;;;;;;5063603;28;19925;-65
2020/12/17 15:36:11;;;;;;;;;;;21.50;42.80;;;;;;5063697;28;19925;-68
2020/12/17 15:38:38;;;;;;;;;;;21.50;43.40;;;;;;5063644;28;19929;-66
2020/12/17 15:41:09;;;;;;;;;;;21.40;43.30;;;;;;5052323;28;20296;-65
2020/12/17 15:43:36;;;;;;;;;;;21.40;43.60;;;;;;5042905;28;19944;-66
2020/12/17 15:46:05;;;;;;;;;;;21.40;43.20;;;;;;5039667;28;19979;-69
2020/12/17 15:48:37;;;;;;;;;;;21.40;43.20;;;;;;5049874;28;19929;-63
2020/12/17 15:51:07;;;;;;;;;;;21.50;43.40;;;;;;5042173;28;19931;-67
2020/12/17 15:53:33;;;;;;;;;;;21.40;43.60;;;;;;5038330;28;19933;-65
2020/12/17 15:56:00;;;;;;;;;;;21.50;43.30;;;;;;5039872;28;20019;-64
2020/12/17 15:58:27;;;;;;;;;;;21.50;43.30;;;;;;5049830;28;19925;-64
2020/12/17 16:00:53;;;;;;;;;;;21.50;42.90;;;;;;5044609;28;19921;-68
2020/12/17 16:03:19;;;;;;;;;;;21.40;42.90;;;;;;5044481;28;19987;-69
2020/12/17 16:05:46;;;;;;;;;;;21.40;43.00;;;;;;5041090;28;19924;-64
2020/12/17 16:08:13;;;;;;;;;;;21.30;43.10;;;;;;5048343;28;19928;-65
2020/12/17 16:10:40;;;;;;;;;;;21.30;43.30;;;;;;5049474;28;19931;-65
2020/12/17 16:13:07;;;;;;;;;;;21.20;43.10;;;;;;5046307;28;19929;-69
2020/12/17 16:15:34;;;;;;;;;;;21.20;43.10;;;;;;5049197;28;20012;-66
2020/12/17 16:18:00;;;;;;;;;;;21.30;43.20;;;;;;5050487;28;19972;-65
2020/12/17 16:20:26;;;;;;;;;;;21.30;43.30;;;;;;5049808;28;19947;-67
2020/12/17 16:22:53;;;;;;;;;;;21.30;43.10;;;;;;5050960;28;19932;-73
2020/12/17 16:25:23;;;;;;;;;;;21.20;43.20;;;;;;5048132;28;19933;-70
2020/12/17 16:27:49;;;;;;;;;;;21.00;43.80;;;;;;5049170;28;19925;-68
2020/12/17 16:30:16;;;;;;;;;;;21.00;43.80;;;;;;5048326;28;19924;-68
2020/12/17 16:32:45;;;;;;;;;;;20.90;44.30;;;;;;5048282;28;20567;-70
2020/12/17 16:35:12;;;;;;;;;;;20.90;44.40;;;;;;5049616;28;19925;-69
2020/12/17 16:37:39;;;;;;;;;;;20.90;44.30;;;;;;5049386;28;19924;-70
2020/12/17 16:40:06;;;;;;;;;;;20.80;44.50;;;;;;5049429;28;20027;-70
2020/12/17 16:42:32;;;;;;;;;;;20.80;44.50;;;;;;5050075;28;19932;-72
2020/12/17 16:44:59;;;;;;;;;;;20.80;44.50;;;;;;5052227;28;19925;-68
2020/12/17 16:47:25;;;;;;;;;;;20.80;44.50;;;;;;5051921;28;20411;-69
2020/12/17 16:49:52;;;;;;;;;;;20.80;44.50;;;;;;5051936;28;19928;-72
2020/12/17 16:52:18;;;;;;;;;;;20.80;44.50;;;;;;5050894;28;20297;-71
2020/12/17 16:54:44;;;;;;;;;;;20.80;44.70;;;;;;5051494;28;19947;-72
2020/12/17 16:57:10;;;;;;;;;;;20.80;44.80;;;;;;5052839;28;19924;-69
2020/12/17 16:59:37;;;;;;;;;;;20.80;44.70;;;;;;5051798;28;19937;-72
2020/12/17 17:02:06;;;;;;;;;;;20.70;44.90;;;;;;5067805;28;19931;-69
2020/12/17 17:04:33;;;;;;;;;;;20.60;45.10;;;;;;5051434;28;19928;-70
2020/12/17 17:06:59;;;;;;;;;;;20.70;45.10;;;;;;5051768;28;19959;-71
2020/12/17 17:09:26;;;;;;;;;;;20.70;45.10;;;;;;5051658;28;19924;-69
2020/12/17 17:11:53;;;;;;;;;;;20.70;45.20;;;;;;5051582;28;20304;-68
2020/12/17 17:14:20;;;;;;;;;;;20.70;45.20;;;;;;5051307;28;19925;-71
2020/12/17 17:16:51;;;;;;;;;;;20.80;45.40;;;;;;5051557;28;19925;-71
2020/12/17 17:19:17;;;;;;;;;;;20.90;45.30;;;;;;5044216;28;19925;-71
2020/12/17 17:21:48;;;;;;;;;;;21.00;45.10;;;;;;5031698;28;19931;-70
2020/12/17 17:24:14;;;;;;;;;;;21.10;45.10;;;;;;5037577;28;20455;-69
2020/12/17 17:26:45;;;;;;;;;;;21.10;44.70;;;;;;5051304;28;19978;-70
2020/12/17 17:29:11;;;;;;;;;;;21.20;44.60;;;;;;5051757;28;19931;-73
2020/12/17 17:31:38;;;;;;;;;;;21.30;44.40;;;;;;5050213;28;19925;-70
2020/12/17 17:34:04;;;;;;;;;;;21.30;44.60;;;;;;5031362;28;20397;-72
2020/12/17 17:36:30;;;;;;;;;;;21.50;44.40;;;;;;5037073;28;19929;-73
2020/12/17 17:38:56;;;;;;;;;;;21.50;44.70;;;;;;5050978;28;19925;-71
2020/12/17 17:41:23;;;;;;;;;;;21.60;44.10;;;;;;5050876;28;19932;-72
2020/12/17 17:43:49;;;;;;;;;;;21.60;44.10;;;;;;5050199;28;19928;-71
2020/12/17 17:46:16;;;;;;;;;;;21.70;44.10;;;;;;5051383;28;19960;-71
2020/12/17 17:48:43;;;;;;;;;;;21.80;43.80;;;;;;5050775;28;20110;-68
2020/12/17 17:51:09;;;;;;;;;;;21.80;43.50;;;;;;5050883;28;20436;-70
2020/12/17 17:53:35;;;;;;;;;;;21.90;43.70;;;;;;5050850;28;20385;-70
2020/12/17 17:56:02;;;;;;;;;;;21.90;43.50;;;;;;5051162;28;19981;-68
2020/12/17 17:58:28;;;;;;;;;;;21.90;43.40;;;;;;5051049;28;19924;-71
2020/12/17 18:00:54;;;;;;;;;;;21.80;43.60;;;;;;5051430;28;19924;-70
2020/12/17 18:03:20;;;;;;;;;;;21.80;43.80;;;;;;5050450;28;19931;-71
2020/12/17 18:05:48;;;;;;;;;;;21.90;43.50;;;;;;5050235;28;19925;-72
2020/12/17 18:08:15;;;;;;;;;;;21.90;43.60;;;;;;5050237;28;19924;-70
2020/12/17 18:10:41;;;;;;;;;;;22.00;44.40;;;;;;5048935;28;19944;-71
2020/12/17 18:13:07;;;;;;;;;;;21.90;44.60;;;;;;5051318;28;20213;-72
2020/12/17 18:15:37;;;;;;;;;;;21.90;44.10;;;;;;5052417;28;19928;-75
2020/12/17 18:18:04;;;;;;;;;;;21.90;43.90;;;;;;5049976;28;19924;-71
2020/12/17 18:20:31;;;;;;;;;;;22.00;44.20;;;;;;5049898;28;19924;-71
2020/12/17 18:22:58;;;;;;;;;;;22.00;44.60;;;;;;5050331;28;19934;-71
2020/12/17 18:25:25;;;;;;;;;;;22.00;44.20;;;;;;5051714;28;20016;-69
2020/12/17 18:27:52;;;;;;;;;;;22.10;43.60;;;;;;5049856;28;20380;-70
2020/12/17 18:30:18;;;;;;;;;;;22.10;43.10;;;;;;5047258;28;19936;-71
2020/12/17 18:32:45;;;;;;;;;;;22.20;43.40;;;;;;5047328;28;19940;-68
2020/12/17 18:35:11;;;;;;;;;;;22.30;43.30;;;;;;5049309;28;19932;-67
2020/12/17 18:37:43;;;;;;;;;;;22.30;43.60;;;;;;5049094;28;19925;-74
2020/12/17 18:40:22;;;;;;;;;;;22.20;43.10;;;;;;5048198;28;20109;-68
2020/12/17 18:42:57;;;;;;;;;;;22.20;43.10;;;;;;5047524;28;20300;-71
2020/12/17 18:45:23;;;;;;;;;;;22.10;43.10;;;;;;5048219;28;19924;-69
2020/12/17 18:47:50;;;;;;;;;;;22.00;43.00;;;;;;5046616;28;19932;-70
2020/12/17 18:50:17;;;;;;;;;;;22.00;43.10;;;;;;5049396;28;19932;-70
2020/12/17 18:52:46;;;;;;;;;;;21.90;43.20;;;;;;5049224;28;19931;-69
2020/12/17 18:55:13;;;;;;;;;;;21.80;43.30;;;;;;5049469;28;19959;-68
2020/12/17 18:57:40;;;;;;;;;;;21.70;43.20;;;;;;5049723;28;19936;-71
2020/12/17 19:00:07;;;;;;;;;;;21.60;42.90;;;;;;5049439;28;19929;-71
2020/12/17 19:02:34;;;;;;;;;;;21.60;43.20;;;;;;5049599;28;20385;-71
2020/12/17 19:05:02;;;;;;;;;;;21.50;43.20;;;;;;5050003;28;20015;-70
2020/12/17 19:07:31;;;;;;;;;;;21.60;43.30;;;;;;5050019;28;20293;-74
2020/12/17 19:09:58;;;;;;;;;;;21.60;43.40;;;;;;5050028;28;20369;-74
2020/12/17 19:12:26;;;;;;;;;;;21.60;43.50;;;;;;5058983;28;19924;-74
2020/12/17 19:14:54;;;;;;;;;;;21.60;43.20;;;;;;5047647;28;19932;-74
2020/12/17 19:17:21;;;;;;;;;;;21.10;44.00;;;;;;5051519;28;20278;-73
2020/12/17 19:19:48;;;;;;;;;;;20.60;44.70;;;;;;5052624;28;19990;-74
2020/12/17 19:22:18;;;;;;;;;;;20.30;46.00;;;;;;5053534;28;20342;-73
2020/12/17 19:24:44;;;;;;;;;;;20.40;46.60;;;;;;5053631;28;20370;-73
2020/12/17 19:27:14;;;;;;;;;;;20.60;46.00;;;;;;5053813;28;19931;-73
2020/12/17 19:29:44;;;;;;;;;;;20.70;45.40;;;;;;5053169;28;19932;-73
2020/12/17 19:32:10;;;;;;;;;;;20.50;45.90;;;;;;5053527;28;20412;-73
2020/12/17 19:34:37;;;;;;;;;;;20.60;45.80;;;;;;5053723;28;19924;-72
2020/12/17 19:37:03;;;;;;;;;;;20.70;45.20;;;;;;5053635;28;19929;-73
2020/12/17 19:39:29;;;;;;;;;;;20.70;45.20;;;;;;5053500;28;19924;-73
2020/12/17 19:42:00;;;;;;;;;;;20.80;45.30;;;;;;5053620;28;19932;-74
2020/12/17 19:44:26;;;;;;;;;;;20.90;45.10;;;;;;5053504;28;19935;-73
2020/12/17 19:46:53;;;;;;;;;;;21.00;45.00;;;;;;5053335;28;19935;-73
2020/12/17 19:49:19;;;;;;;;;;;20.90;44.40;;;;;;5053320;28;19925;-73
2020/12/17 19:51:46;;;;;;;;;;;20.90;45.10;;;;;;5053663;28;20427;-73
2020/12/17 19:54:13;;;;;;;;;;;20.90;44.80;;;;;;5053443;28;19924;-73
2020/12/17 19:56:39;;;;;;;;;;;20.60;44.80;;;;;;5053256;28;19925;-73
2020/12/17 19:59:06;;;;;;;;;;;20.70;45.50;;;;;;5052980;28;19925;-73
2020/12/17 20:01:33;;;;;;;;;;;20.80;45.30;;;;;;5053003;28;19928;-73
2020/12/17 20:04:00;;;;;;;;;;;20.80;45.30;;;;;;5053054;28;19952;-73
2020/12/17 20:06:30;;;;;;;;;;;20.90;45.10;;;;;;5053222;28;19937;-73
2020/12/17 20:08:57;;;;;;;;;;;20.80;45.10;;;;;;5052722;28;19932;-73
2020/12/17 20:11:23;;;;;;;;;;;20.80;45.10;;;;;;5052908;28;19940;-73
2020/12/17 20:13:49;;;;;;;;;;;20.90;45.00;;;;;;5052614;28;19924;-73
2020/12/17 20:16:17;;;;;;;;;;;20.70;44.90;;;;;;5052723;28;19925;-72
2020/12/17 20:18:44;;;;;;;;;;;20.70;46.20;;;;;;5052674;28;19928;-73
2020/12/17 20:21:10;;;;;;;;;;;20.80;45.30;;;;;;5052841;28;19992;-72
2020/12/17 20:23:38;;;;;;;;;;;20.90;44.80;;;;;;5052476;28;20395;-72
2020/12/17 20:26:05;;;;;;;;;;;20.80;45.20;;;;;;5052664;28;19925;-73
2020/12/17 20:28:31;;;;;;;;;;;20.80;45.10;;;;;;5052228;28;20337;-73
2020/12/17 20:30:57;;;;;;;;;;;20.80;45.00;;;;;;5052651;28;19928;-73
2020/12/17 20:33:24;;;;;;;;;;;20.80;45.10;;;;;;5052633;28;19925;-72
2020/12/17 20:35:50;;;;;;;;;;;20.80;45.30;;;;;;5051096;28;19925;-73
2020/12/17 20:38:16;;;;;;;;;;;20.80;45.20;;;;;;5052682;28;19947;-73
2020/12/17 20:40:43;;;;;;;;;;;20.70;45.30;;;;;;5052383;28;19924;-73
2020/12/17 20:43:09;;;;;;;;;;;20.70;44.80;;;;;;5052298;28;19931;-73
2020/12/17 20:45:35;;;;;;;;;;;20.70;45.20;;;;;;5050926;28;19932;-73
2020/12/17 20:48:02;;;;;;;;;;;20.60;45.60;;;;;;5052136;28;19979;-73
2020/12/17 20:50:28;;;;;;;;;;;20.60;45.60;;;;;;5052207;28;19925;-73
2020/12/17 20:52:54;;;;;;;;;;;20.80;45.30;;;;;;5052412;28;19924;-73
2020/12/17 20:55:20;;;;;;;;;;;20.50;45.70;;;;;;5052204;28;19925;-73
2020/12/17 20:57:47;;;;;;;;;;;20.50;46.00;;;;;;5051940;28;19925;-73
2020/12/17 21:00:14;;;;;;;;;;;20.60;45.80;;;;;;5052168;28;19947;-73
2020/12/17 21:02:40;;;;;;;;;;;20.70;45.50;;;;;;5052227;28;19924;-73
2020/12/17 21:05:06;;;;;;;;;;;20.60;44.90;;;;;;5051735;28;19925;-73
2020/12/17 21:07:32;;;;;;;;;;;20.60;45.80;;;;;;5051760;28;20404;-73
2020/12/17 21:09:59;;;;;;;;;;;20.70;45.50;;;;;;5051753;28;19925;-73
2020/12/17 21:12:26;;;;;;;;;;;20.70;44.70;;;;;;5051668;28;19932;-73
2020/12/17 21:14:52;;;;;;;;;;;20.80;45.50;;;;;;5051546;28;19925;-73
2020/12/17 21:17:18;;;;;;;;;;;20.80;45.30;;;;;;5052143;28;20095;-73
2020/12/17 21:19:44;;;;;;;;;;;20.80;45.30;;;;;;5051444;28;19947;-73
2020/12/17 21:22:12;;;;;;;;;;;20.80;45.20;;;;;;5051755;28;19931;-73
2020/12/17 21:24:39;;;;;;;;;;;20.80;45.20;;;;;;5051436;28;19931;-73
2020/12/17 21:27:05;;;;;;;;;;;20.80;45.30;;;;;;5051466;28;20278;-73
2020/12/17 21:29:31;;;;;;;;;;;20.90;45.10;;;;;;5049778;28;19964;-73
2020/12/17 21:31:58;;;;;;;;;;;20.90;44.90;;;;;;5051273;28;20385;-73
2020/12/17 21:34:24;;;;;;;;;;;20.90;44.90;;;;;;5051264;28;20176;-73
2020/12/17 21:36:54;;;;;;;;;;;21.00;44.80;;;;;;5050095;28;19932;-73
2020/12/17 21:39:21;;;;;;;;;;;21.00;44.90;;;;;;5050883;28;19925;-73
2020/12/17 21:41:47;;;;;;;;;;;21.00;44.90;;;;;;5049836;28;19925;-73
2020/12/17 21:44:13;;;;;;;;;;;21.00;44.90;;;;;;5051144;28;19929;-73
2020/12/17 21:46:41;;;;;;;;;;;21.00;44.80;;;;;;5051154;28;19925;-73
2020/12/17 21:49:17;;;;;;;;;;;21.00;44.70;;;;;;5051150;28;19925;-73
2020/12/17 21:51:43;;;;;;;;;;;20.90;44.60;;;;;;5050979;28;19935;-73
2020/12/17 21:54:10;;;;;;;;;;;20.90;45.00;;;;;;5051269;28;19948;-73
2020/12/17 21:56:36;;;;;;;;;;;20.90;45.00;;;;;;5051130;28;19978;-73
2020/12/17 21:59:02;;;;;;;;;;;20.90;44.90;;;;;;5050937;28;19933;-73
2020/12/17 22:01:34;;;;;;;;;;;20.90;44.90;;;;;;5050924;28;19929;-73
2020/12/17 22:04:00;;;;;;;;;;;20.90;44.80;;;;;;5051074;28;19924;-73
2020/12/17 22:06:26;;;;;;;;;;;21.00;44.70;;;;;;5050709;28;19924;-73
2020/12/17 22:08:53;;;;;;;;;;;21.00;44.80;;;;;;5050947;28;19928;-72
2020/12/17 22:11:22;;;;;;;;;;;20.90;44.60;;;;;;5050841;28;19925;-73
2020/12/17 22:13:49;;;;;;;;;;;20.90;45.00;;;;;;5050420;28;19924;-73
2020/12/17 22:16:19;;;;;;;;;;;20.90;44.80;;;;;;5050851;28;19928;-73
2020/12/17 22:18:46;;;;;;;;;;;21.00;44.70;;;;;;5050554;28;20036;-73
2020/12/17 22:21:13;;;;;;;;;;;21.00;44.70;;;;;;5050557;28;19924;-73
2020/12/17 22:23:39;;;;;;;;;;;20.90;45.00;;;;;;5050799;28;19924;-73
2020/12/17 22:26:05;;;;;;;;;;;21.00;44.90;;;;;;5050767;28;19925;-73
2020/12/17 22:28:32;;;;;;;;;;;21.00;44.70;;;;;;5050245;28;20016;-73
2020/12/17 22:30:59;;;;;;;;;;;21.00;44.60;;;;;;5050665;28;20296;-73
2020/12/17 22:33:25;;;;;;;;;;;20.90;44.90;;;;;;5050436;28;19932;-73
2020/12/17 22:35:51;;;;;;;;;;;20.90;44.90;;;;;;5050336;28;19925;-73
2020/12/17 22:38:17;;;;;;;;;;;21.00;44.70;;;;;;5050574;28;19932;-73
2020/12/17 22:40:44;;;;;;;;;;;21.00;44.60;;;;;;5050182;28;19950;-73
2020/12/17 22:43:10;;;;;;;;;;;20.80;44.50;;;;;;5050636;28;19925;-73
2020/12/17 22:45:37;;;;;;;;;;;21.00;44.90;;;;;;5050217;28;20278;-74
2020/12/17 22:48:03;;;;;;;;;;;20.90;44.80;;;;;;5050529;28;19925;-73
2020/12/17 22:50:30;;;;;;;;;;;20.80;45.10;;;;;;5051941;28;19924;-73
2020/12/17 22:52:57;;;;;;;;;;;20.80;45.20;;;;;;5053015;28;19932;-73
2020/12/17 22:55:23;;;;;;;;;;;20.80;45.10;;;;;;5054245;28;19929;-73
2020/12/17 22:57:49;;;;;;;;;;;21.00;45.00;;;;;;5054441;28;19925;-72
2020/12/17 23:00:15;;;;;;;;;;;20.90;45.00;;;;;;5054490;28;19924;-73
2020/12/17 23:02:42;;;;;;;;;;;20.90;45.20;;;;;;5054104;28;19931;-73
2020/12/17 23:05:10;;;;;;;;;;;20.90;44.80;;;;;;5054146;28;19929;-73
2020/12/17 23:07:37;;;;;;;;;;;20.90;45.10;;;;;;5054275;28;19925;-73
2020/12/17 23:10:03;;;;;;;;;;;20.90;45.00;;;;;;5053776;28;19943;-73
2020/12/17 23:12:30;;;;;;;;;;;21.00;45.10;;;;;;5053858;28;20289;-73
2020/12/17 23:14:56;;;;;;;;;;;21.00;44.80;;;;;;5053834;28;19932;-73
2020/12/17 23:17:22;;;;;;;;;;;20.80;44.90;;;;;;5053995;28;19925;-73
2020/12/17 23:19:48;;;;;;;;;;;20.80;45.40;;;;;;5054043;28;19925;-73
2020/12/17 23:22:15;;;;;;;;;;;20.70;45.70;;;;;;5052824;28;19924;-73
2020/12/17 23:24:41;;;;;;;;;;;20.50;46.00;;;;;;5053652;28;19932;-73
2020/12/17 23:27:07;;;;;;;;;;;20.60;46.00;;;;;;5054161;28;19925;-73
2020/12/17 23:29:34;;;;;;;;;;;20.70;45.90;;;;;;5053444;28;19936;-73
2020/12/17 23:32:00;;;;;;;;;;;20.70;45.60;;;;;;5053559;28;20370;-73
2020/12/17 23:34:26;;;;;;;;;;;20.80;45.50;;;;;;5053735;28;19925;-73
2020/12/17 23:36:52;;;;;;;;;;;21.00;45.20;;;;;;5052250;28;19925;-73
2020/12/17 23:39:19;;;;;;;;;;;21.00;44.90;;;;;;5053502;28;19932;-74
2020/12/17 23:41:45;;;;;;;;;;;21.00;45.00;;;;;;5053582;28;19978;-73
2020/12/17 23:44:12;;;;;;;;;;;21.10;44.70;;;;;;5053281;28;20389;-73
2020/12/17 23:46:38;;;;;;;;;;;21.10;44.70;;;;;;5053599;28;19931;-73
2020/12/17 23:49:04;;;;;;;;;;;21.10;44.70;;;;;;5052132;28;19932;-73
2020/12/17 23:51:31;;;;;;;;;;;21.20;44.60;;;;;;5053439;28;19931;-73
2020/12/17 23:53:57;;;;;;;;;;;21.30;44.50;;;;;;5053451;28;19929;-73
2020/12/17 23:56:25;;;;;;;;;;;21.30;44.50;;;;;;5053417;28;19925;-73
2020/12/17 23:58:51;;;;;;;;;;;21.30;44.50;;;;;;5053018;28;19931;-73
